sensor_id;sensor_type;location;lat;lon;timestamp;temperature;humidity
4566;DHT22;2295;51.050;14.608;2023-05-10T00:00:59;10.20;97.10
4566;DHT22;2295;51.050;14.608;2023-05-10T00:03:28;10.10;97.80
4566;DHT22;2295;51.050;14.608;2023-05-10T00:05:56;10.20;96.90
4566;DHT22;2295;51.050;14.608;2023-05-10T00:08:25;10.40;95.70
4566;DHT22;2295;51.050;14.608;2023-05-10T00:10:53;10.40;95.50
4566;DHT22;2295;51.050;14.608;2023-05-10T00:13:23;10.50;95.60
4566;DHT22;2295;51.050;14.608;2023-05-10T00:15:52;10.40;96.70
4566;DHT22;2295;51.050;14.608;2023-05-10T00:18:20;10.20;96.50
4566;DHT22;2295;51.050;14.608;2023-05-10T00:20:49;10.30;97.10
4566;DHT22;2295;51.050;14.608;2023-05-10T00:23:17;10.50;95.20
4566;DHT22;2295;51.050;14.608;2023-05-10T00:25:46;10.50;96.10
4566;DHT22;2295;51.050;14.608;2023-05-10T00:28:14;10.50;95.90
4566;DHT22;2295;51.050;14.608;2023-05-10T00:30:44;10.40;96.10
4566;DHT22;2295;51.050;14.608;2023-05-10T00:33:12;10.50;95.60
4566;DHT22;2295;51.050;14.608;2023-05-10T00:35:41;10.50;95.10
4566;DHT22;2295;51.050;14.608;2023-05-10T00:38:09;10.50;95.30
4566;DHT22;2295;51.050;14.608;2023-05-10T00:40:37;10.50;95.40
4566;DHT22;2295;51.050;14.608;2023-05-10T00:43:06;10.50;95.30
4566;DHT22;2295;51.050;14.608;2023-05-10T00:45:36;10.40;96.00
4566;DHT22;2295;51.050;14.608;2023-05-10T00:48:06;10.30;97.10
4566;DHT22;2295;51.050;14.608;2023-05-10T00:50:35;10.20;97.20
4566;DHT22;2295;51.050;14.608;2023-05-10T00:53:03;10.10;97.70
4566;DHT22;2295;51.050;14.608;2023-05-10T00:55:32;10.20;97.40
4566;DHT22;2295;51.050;14.608;2023-05-10T00:58:00;10.30;97.40
4566;DHT22;2295;51.050;14.608;2023-05-10T01:00:29;10.20;98.20
4566;DHT22;2295;51.050;14.608;2023-05-10T01:02:58;10.00;98.60
4566;DHT22;2295;51.050;14.608;2023-05-10T01:05:28;9.90;98.90
4566;DHT22;2295;51.050;14.608;2023-05-10T01:07:57;10.20;97.90
4566;DHT22;2295;51.050;14.608;2023-05-10T01:10:25;10.30;97.50
4566;DHT22;2295;51.050;14.608;2023-05-10T01:12:53;10.20;98.40
4566;DHT22;2295;51.050;14.608;2023-05-10T01:15:23;10.10;99.20
4566;DHT22;2295;51.050;14.608;2023-05-10T01:17:52;9.90;99.50
4566;DHT22;2295;51.050;14.608;2023-05-10T01:20:21;10.20;98.80
4566;DHT22;2295;51.050;14.608;2023-05-10T01:23:10;10.10;99.50
4566;DHT22;2295;51.050;14.608;2023-05-10T01:29:11;10.20;98.80
4566;DHT22;2295;51.050;14.608;2023-05-10T01:32:19;10.30;98.60
4566;DHT22;2295;51.050;14.608;2023-05-10T01:34:54;10.20;99.10
4566;DHT22;2295;51.050;14.608;2023-05-10T01:37:31;10.00;99.90
4566;DHT22;2295;51.050;14.608;2023-05-10T01:40:09;10.00;99.80
4566;DHT22;2295;51.050;14.608;2023-05-10T01:42:47;10.00;99.90
4566;DHT22;2295;51.050;14.608;2023-05-10T01:45:24;10.00;99.90
4566;DHT22;2295;51.050;14.608;2023-05-10T01:48:04;9.80;99.90
4566;DHT22;2295;51.050;14.608;2023-05-10T01:50:36;9.80;99.90
4566;DHT22;2295;51.050;14.608;2023-05-10T01:53:07;9.60;99.90
4566;DHT22;2295;51.050;14.608;2023-05-10T01:55:41;9.40;99.90
4566;DHT22;2295;51.050;14.608;2023-05-10T01:58:17;9.30;99.90
4566;DHT22;2295;51.050;14.608;2023-05-10T02:00:49;9.40;99.90
4566;DHT22;2295;51.050;14.608;2023-05-10T02:03:23;9.50;99.90
4566;DHT22;2295;51.050;14.608;2023-05-10T02:05:53;9.50;99.90
4566;DHT22;2295;51.050;14.608;2023-05-10T02:08:22;9.50;99.90
4566;DHT22;2295;51.050;14.608;2023-05-10T02:10:55;9.50;99.90
4566;DHT22;2295;51.050;14.608;2023-05-10T02:13:24;9.40;99.90
4566;DHT22;2295;51.050;14.608;2023-05-10T02:15:54;9.50;99.90
4566;DHT22;2295;51.050;14.608;2023-05-10T02:18:26;9.50;99.90
4566;DHT22;2295;51.050;14.608;2023-05-10T02:20:55;9.40;99.90
4566;DHT22;2295;51.050;14.608;2023-05-10T02:23:25;9.50;99.90
4566;DHT22;2295;51.050;14.608;2023-05-10T02:25:55;9.40;99.90
4566;DHT22;2295;51.050;14.608;2023-05-10T02:28:26;9.30;99.90
4566;DHT22;2295;51.050;14.608;2023-05-10T02:30:55;9.30;99.90
4566;DHT22;2295;51.050;14.608;2023-05-10T02:33:26;9.30;99.90
4566;DHT22;2295;51.050;14.608;2023-05-10T02:35:54;9.30;99.90
4566;DHT22;2295;51.050;14.608;2023-05-10T02:38:24;9.30;99.90
4566;DHT22;2295;51.050;14.608;2023-05-10T02:40:54;9.20;99.90
4566;DHT22;2295;51.050;14.608;2023-05-10T02:43:24;9.10;99.90
4566;DHT22;2295;51.050;14.608;2023-05-10T02:45:52;9.30;99.90
4566;DHT22;2295;51.050;14.608;2023-05-10T02:48:21;9.30;99.90
4566;DHT22;2295;51.050;14.608;2023-05-10T02:50:52;9.30;99.90
4566;DHT22;2295;51.050;14.608;2023-05-10T02:53:28;9.20;99.90
4566;DHT22;2295;51.050;14.608;2023-05-10T02:56:00;9.10;99.90
4566;DHT22;2295;51.050;14.608;2023-05-10T02:58:30;9.10;99.90
4566;DHT22;2295;51.050;14.608;2023-05-10T03:00:59;9.40;99.90
4566;DHT22;2295;51.050;14.608;2023-05-10T03:03:28;9.50;99.90
4566;DHT22;2295;51.050;14.608;2023-05-10T03:05:58;9.40;99.90
4566;DHT22;2295;51.050;14.608;2023-05-10T03:08:26;9.30;99.90
4566;DHT22;2295;51.050;14.608;2023-05-10T03:11:09;9.20;99.90
4566;DHT22;2295;51.050;14.608;2023-05-10T03:13:48;9.00;99.90
4566;DHT22;2295;51.050;14.608;2023-05-10T03:16:28;8.90;99.90
4566;DHT22;2295;51.050;14.608;2023-05-10T03:19:05;8.80;99.90
4566;DHT22;2295;51.050;14.608;2023-05-10T03:21:38;8.90;99.90
4566;DHT22;2295;51.050;14.608;2023-05-10T03:24:08;8.90;99.90
4566;DHT22;2295;51.050;14.608;2023-05-10T03:26:39;9.00;99.90
4566;DHT22;2295;51.050;14.608;2023-05-10T03:29:08;9.10;99.90
4566;DHT22;2295;51.050;14.608;2023-05-10T03:31:38;9.10;99.90
4566;DHT22;2295;51.050;14.608;2023-05-10T03:34:07;9.30;99.90
4566;DHT22;2295;51.050;14.608;2023-05-10T03:36:37;9.40;99.90
4566;DHT22;2295;51.050;14.608;2023-05-10T03:39:05;9.40;99.90
4566;DHT22;2295;51.050;14.608;2023-05-10T03:41:33;9.30;99.90
4566;DHT22;2295;51.050;14.608;2023-05-10T03:44:02;9.20;99.90
4566;DHT22;2295;51.050;14.608;2023-05-10T03:46:30;9.30;99.90
4566;DHT22;2295;51.050;14.608;2023-05-10T03:48:59;9.30;99.90
4566;DHT22;2295;51.050;14.608;2023-05-10T03:51:28;9.20;99.90
4566;DHT22;2295;51.050;14.608;2023-05-10T03:53:59;9.40;99.90
4566;DHT22;2295;51.050;14.608;2023-05-10T03:56:27;9.50;99.90
4566;DHT22;2295;51.050;14.608;2023-05-10T03:58:56;9.50;99.90
4566;DHT22;2295;51.050;14.608;2023-05-10T04:01:24;9.50;99.90
4566;DHT22;2295;51.050;14.608;2023-05-10T04:03:52;9.50;99.90
4566;DHT22;2295;51.050;14.608;2023-05-10T04:06:21;9.60;99.90
4566;DHT22;2295;51.050;14.608;2023-05-10T04:08:49;9.70;99.90
4566;DHT22;2295;51.050;14.608;2023-05-10T04:11:19;9.70;99.90
4566;DHT22;2295;51.050;14.608;2023-05-10T04:13:48;9.80;99.90
4566;DHT22;2295;51.050;14.608;2023-05-10T04:16:17;9.80;99.90
4566;DHT22;2295;51.050;14.608;2023-05-10T04:18:45;9.80;99.90
4566;DHT22;2295;51.050;14.608;2023-05-10T04:21:14;9.80;99.90
4566;DHT22;2295;51.050;14.608;2023-05-10T04:23:42;9.70;99.90
4566;DHT22;2295;51.050;14.608;2023-05-10T04:26:10;9.90;99.90
4566;DHT22;2295;51.050;14.608;2023-05-10T04:28:40;10.00;99.90
4566;DHT22;2295;51.050;14.608;2023-05-10T04:31:09;10.10;99.90
4566;DHT22;2295;51.050;14.608;2023-05-10T04:33:39;10.10;99.90
4566;DHT22;2295;51.050;14.608;2023-05-10T04:36:07;10.30;99.90
4566;DHT22;2295;51.050;14.608;2023-05-10T04:38:36;10.40;99.90
4566;DHT22;2295;51.050;14.608;2023-05-10T04:41:05;10.60;99.90
4566;DHT22;2295;51.050;14.608;2023-05-10T04:43:34;10.80;99.90
4566;DHT22;2295;51.050;14.608;2023-05-10T04:46:05;11.30;99.90
4566;DHT22;2295;51.050;14.608;2023-05-10T04:48:34;11.90;99.90
4566;DHT22;2295;51.050;14.608;2023-05-10T04:51:02;12.90;97.10
4566;DHT22;2295;51.050;14.608;2023-05-10T04:53:31;13.60;92.30
4566;DHT22;2295;51.050;14.608;2023-05-10T04:56:00;13.90;88.20
4566;DHT22;2295;51.050;14.608;2023-05-10T04:58:28;14.50;84.50
4566;DHT22;2295;51.050;14.608;2023-05-10T05:00:56;15.20;78.70
4566;DHT22;2295;51.050;14.608;2023-05-10T05:03:26;15.30;73.80
4566;DHT22;2295;51.050;14.608;2023-05-10T05:05:54;15.30;74.60
4566;DHT22;2295;51.050;14.608;2023-05-10T05:08:23;15.60;72.70
4566;DHT22;2295;51.050;14.608;2023-05-10T05:10:51;15.40;72.30
4566;DHT22;2295;51.050;14.608;2023-05-10T05:13:19;15.40;71.20
4566;DHT22;2295;51.050;14.608;2023-05-10T05:15:47;15.30;71.90
4566;DHT22;2295;51.050;14.608;2023-05-10T05:18:16;14.80;74.50
4566;DHT22;2295;51.050;14.608;2023-05-10T05:20:45;14.90;75.30
4566;DHT22;2295;51.050;14.608;2023-05-10T05:23:14;15.20;74.50
4566;DHT22;2295;51.050;14.608;2023-05-10T05:25:42;15.80;72.10
4566;DHT22;2295;51.050;14.608;2023-05-10T05:28:10;15.80;69.00
4566;DHT22;2295;51.050;14.608;2023-05-10T05:30:39;15.60;70.00
4566;DHT22;2295;51.050;14.608;2023-05-10T05:33:07;15.10;70.00
4566;DHT22;2295;51.050;14.608;2023-05-10T05:35:35;15.10;71.70
4566;DHT22;2295;51.050;14.608;2023-05-10T05:38:05;15.00;72.70
4566;DHT22;2295;51.050;14.608;2023-05-10T05:40:33;15.40;71.90
4566;DHT22;2295;51.050;14.608;2023-05-10T05:43:02;15.60;71.20
4566;DHT22;2295;51.050;14.608;2023-05-10T05:45:30;15.90;69.10
4566;DHT22;2295;51.050;14.608;2023-05-10T05:47:58;15.90;69.10
4566;DHT22;2295;51.050;14.608;2023-05-10T05:50:26;15.70;70.00
4566;DHT22;2295;51.050;14.608;2023-05-10T05:52:55;15.50;70.90
4566;DHT22;2295;51.050;14.608;2023-05-10T05:55:26;15.80;70.00
4566;DHT22;2295;51.050;14.608;2023-05-10T05:57:54;16.10;70.30
4566;DHT22;2295;51.050;14.608;2023-05-10T06:00:22;16.00;70.00
4566;DHT22;2295;51.050;14.608;2023-05-10T06:02:50;16.90;68.60
4566;DHT22;2295;51.050;14.608;2023-05-10T06:05:19;17.70;64.60
4566;DHT22;2295;51.050;14.608;2023-05-10T06:07:48;18.00;62.00
4566;DHT22;2295;51.050;14.608;2023-05-10T06:10:16;17.90;59.40
4566;DHT22;2295;51.050;14.608;2023-05-10T06:12:46;17.40;62.60
4566;DHT22;2295;51.050;14.608;2023-05-10T06:15:15;17.10;63.60
4566;DHT22;2295;51.050;14.608;2023-05-10T06:17:43;17.60;62.50
4566;DHT22;2295;51.050;14.608;2023-05-10T06:20:13;17.30;60.40
4566;DHT22;2295;51.050;14.608;2023-05-10T06:22:42;17.20;63.40
4566;DHT22;2295;51.050;14.608;2023-05-10T06:25:11;18.00;60.50
4566;DHT22;2295;51.050;14.608;2023-05-10T06:27:40;18.30;61.00
4566;DHT22;2295;51.050;14.608;2023-05-10T06:30:11;18.60;58.60
4566;DHT22;2295;51.050;14.608;2023-05-10T06:32:43;17.80;58.80
4566;DHT22;2295;51.050;14.608;2023-05-10T06:35:12;17.00;61.10
4566;DHT22;2295;51.050;14.608;2023-05-10T06:37:41;17.60;62.70
4566;DHT22;2295;51.050;14.608;2023-05-10T06:40:10;18.10;59.20
4566;DHT22;2295;51.050;14.608;2023-05-10T06:42:38;18.20;61.30
4566;DHT22;2295;51.050;14.608;2023-05-10T06:45:10;18.20;59.00
4566;DHT22;2295;51.050;14.608;2023-05-10T06:47:39;17.60;60.40
4566;DHT22;2295;51.050;14.608;2023-05-10T06:50:09;17.70;60.40
4566;DHT22;2295;51.050;14.608;2023-05-10T06:52:42;17.50;62.20
4566;DHT22;2295;51.050;14.608;2023-05-10T06:55:10;17.80;59.80
4566;DHT22;2295;51.050;14.608;2023-05-10T06:57:38;17.80;60.80
4566;DHT22;2295;51.050;14.608;2023-05-10T07:00:07;17.80;61.10
4566;DHT22;2295;51.050;14.608;2023-05-10T07:02:38;18.30;60.90
4566;DHT22;2295;51.050;14.608;2023-05-10T07:05:07;18.90;58.10
4566;DHT22;2295;51.050;14.608;2023-05-10T07:07:35;18.70;58.40
4566;DHT22;2295;51.050;14.608;2023-05-10T07:10:04;18.40;57.80
4566;DHT22;2295;51.050;14.608;2023-05-10T07:12:33;19.10;57.20
4566;DHT22;2295;51.050;14.608;2023-05-10T07:15:02;18.30;57.00
4566;DHT22;2295;51.050;14.608;2023-05-10T07:17:31;18.90;57.90
4566;DHT22;2295;51.050;14.608;2023-05-10T07:20:01;18.90;56.10
4566;DHT22;2295;51.050;14.608;2023-05-10T07:22:30;18.70;56.70
4566;DHT22;2295;51.050;14.608;2023-05-10T07:24:58;18.80;57.50
4566;DHT22;2295;51.050;14.608;2023-05-10T07:27:27;18.70;56.60
4566;DHT22;2295;51.050;14.608;2023-05-10T07:29:55;17.90;56.40
4566;DHT22;2295;51.050;14.608;2023-05-10T07:32:23;17.80;60.90
4566;DHT22;2295;51.050;14.608;2023-05-10T07:34:52;18.60;58.00
4566;DHT22;2295;51.050;14.608;2023-05-10T07:37:22;19.00;57.80
4566;DHT22;2295;51.050;14.608;2023-05-10T07:39:50;18.70;55.00
4566;DHT22;2295;51.050;14.608;2023-05-10T07:42:18;18.90;57.20
4566;DHT22;2295;51.050;14.608;2023-05-10T07:44:47;19.20;56.00
4566;DHT22;2295;51.050;14.608;2023-05-10T07:47:15;18.90;55.10
4566;DHT22;2295;51.050;14.608;2023-05-10T07:49:43;18.60;55.90
4566;DHT22;2295;51.050;14.608;2023-05-10T07:52:11;19.30;58.10
4566;DHT22;2295;51.050;14.608;2023-05-10T07:54:41;20.00;53.50
4566;DHT22;2295;51.050;14.608;2023-05-10T07:57:10;20.10;55.80
4566;DHT22;2295;51.050;14.608;2023-05-10T07:59:38;19.40;54.00
4566;DHT22;2295;51.050;14.608;2023-05-10T08:02:06;18.70;54.50
4566;DHT22;2295;51.050;14.608;2023-05-10T08:04:35;18.70;55.40
4566;DHT22;2295;51.050;14.608;2023-05-10T08:07:03;19.00;55.90
4566;DHT22;2295;51.050;14.608;2023-05-10T08:09:31;19.70;54.00
4566;DHT22;2295;51.050;14.608;2023-05-10T08:12:01;19.30;55.10
4566;DHT22;2295;51.050;14.608;2023-05-10T08:14:29;20.50;53.60
4566;DHT22;2295;51.050;14.608;2023-05-10T08:16:58;20.40;54.10
4566;DHT22;2295;51.050;14.608;2023-05-10T08:19:26;21.10;53.60
4566;DHT22;2295;51.050;14.608;2023-05-10T08:21:54;21.20;50.90
4566;DHT22;2295;51.050;14.608;2023-05-10T08:24:23;20.90;51.90
4566;DHT22;2295;51.050;14.608;2023-05-10T08:26:52;21.00;50.70
4566;DHT22;2295;51.050;14.608;2023-05-10T08:29:21;21.30;51.90
4566;DHT22;2295;51.050;14.608;2023-05-10T08:31:52;21.30;52.10
4566;DHT22;2295;51.050;14.608;2023-05-10T08:34:23;21.90;51.20
4566;DHT22;2295;51.050;14.608;2023-05-10T08:36:52;22.20;48.60
4566;DHT22;2295;51.050;14.608;2023-05-10T08:39:20;21.00;50.90
4566;DHT22;2295;51.050;14.608;2023-05-10T08:42:01;20.70;51.60
4566;DHT22;2295;51.050;14.608;2023-05-10T08:44:32;20.90;50.00
4566;DHT22;2295;51.050;14.608;2023-05-10T08:47:05;20.60;51.50
4566;DHT22;2295;51.050;14.608;2023-05-10T08:49:34;19.30;52.70
4566;DHT22;2295;51.050;14.608;2023-05-10T08:52:03;19.60;54.00
4566;DHT22;2295;51.050;14.608;2023-05-10T08:54:32;20.40;52.90
4566;DHT22;2295;51.050;14.608;2023-05-10T08:57:01;20.80;51.90
4566;DHT22;2295;51.050;14.608;2023-05-10T08:59:31;21.20;51.00
4566;DHT22;2295;51.050;14.608;2023-05-10T09:02:00;20.90;53.00
4566;DHT22;2295;51.050;14.608;2023-05-10T09:04:29;21.00;50.90
4566;DHT22;2295;51.050;14.608;2023-05-10T09:06:58;20.90;52.40
4566;DHT22;2295;51.050;14.608;2023-05-10T09:09:28;21.00;49.40
4566;DHT22;2295;51.050;14.608;2023-05-10T09:11:57;21.30;50.60
4566;DHT22;2295;51.050;14.608;2023-05-10T09:14:25;22.30;51.80
4566;DHT22;2295;51.050;14.608;2023-05-10T09:16:58;23.30;48.70
4566;DHT22;2295;51.050;14.608;2023-05-10T09:19:27;23.40;45.60
4566;DHT22;2295;51.050;14.608;2023-05-10T09:22:01;22.40;49.30
4566;DHT22;2295;51.050;14.608;2023-05-10T09:24:30;23.20;46.70
4566;DHT22;2295;51.050;14.608;2023-05-10T09:26:58;20.70;49.00
4566;DHT22;2295;51.050;14.608;2023-05-10T09:29:38;21.50;53.40
4566;DHT22;2295;51.050;14.608;2023-05-10T09:32:08;22.60;48.20
4566;DHT22;2295;51.050;14.608;2023-05-10T09:34:40;22.50;47.00
4566;DHT22;2295;51.050;14.608;2023-05-10T09:37:09;22.80;47.90
4566;DHT22;2295;51.050;14.608;2023-05-10T09:39:37;23.20;47.20
4566;DHT22;2295;51.050;14.608;2023-05-10T09:42:08;23.20;46.70
4566;DHT22;2295;51.050;14.608;2023-05-10T09:44:36;23.30;46.90
4566;DHT22;2295;51.050;14.608;2023-05-10T09:47:05;22.50;46.50
4566;DHT22;2295;51.050;14.608;2023-05-10T09:49:34;22.10;48.40
4566;DHT22;2295;51.050;14.608;2023-05-10T09:52:04;22.20;47.40
4566;DHT22;2295;51.050;14.608;2023-05-10T09:54:33;22.20;49.70
4566;DHT22;2295;51.050;14.608;2023-05-10T09:57:02;22.90;48.70
4566;DHT22;2295;51.050;14.608;2023-05-10T09:59:33;23.20;46.90
4566;DHT22;2295;51.050;14.608;2023-05-10T10:02:02;23.60;46.40
4566;DHT22;2295;51.050;14.608;2023-05-10T10:04:31;23.20;45.70
4566;DHT22;2295;51.050;14.608;2023-05-10T10:07:02;23.10;46.10
4566;DHT22;2295;51.050;14.608;2023-05-10T10:09:31;22.30;46.40
4566;DHT22;2295;51.050;14.608;2023-05-10T10:11:59;22.30;46.50
4566;DHT22;2295;51.050;14.608;2023-05-10T10:14:29;23.00;46.60
4566;DHT22;2295;51.050;14.608;2023-05-10T10:17:00;23.10;46.00
4566;DHT22;2295;51.050;14.608;2023-05-10T10:19:33;23.10;47.80
4566;DHT22;2295;51.050;14.608;2023-05-10T10:22:04;23.30;45.70
4566;DHT22;2295;51.050;14.608;2023-05-10T10:24:32;23.10;49.20
4566;DHT22;2295;51.050;14.608;2023-05-10T10:27:09;23.90;45.90
4566;DHT22;2295;51.050;14.608;2023-05-10T10:29:47;23.80;45.90
4566;DHT22;2295;51.050;14.608;2023-05-10T10:32:24;24.40;44.50
4566;DHT22;2295;51.050;14.608;2023-05-10T10:34:54;25.30;43.30
4566;DHT22;2295;51.050;14.608;2023-05-10T10:37:42;24.40;42.40
4566;DHT22;2295;51.050;14.608;2023-05-10T10:40:24;24.50;46.10
4566;DHT22;2295;51.050;14.608;2023-05-10T10:42:53;23.30;43.90
4566;DHT22;2295;51.050;14.608;2023-05-10T10:45:23;22.90;46.10
4566;DHT22;2295;51.050;14.608;2023-05-10T10:48:20;23.40;46.20
4566;DHT22;2295;51.050;14.608;2023-05-10T10:50:57;23.80;45.00
4566;DHT22;2295;51.050;14.608;2023-05-10T10:53:28;24.00;44.70
4566;DHT22;2295;51.050;14.608;2023-05-10T10:56:05;24.00;44.00
4566;DHT22;2295;51.050;14.608;2023-05-10T10:58:36;24.30;45.70
4566;DHT22;2295;51.050;14.608;2023-05-10T11:01:13;24.40;45.40
4566;DHT22;2295;51.050;14.608;2023-05-10T11:04:17;23.40;45.80
4566;DHT22;2295;51.050;14.608;2023-05-10T11:06:46;23.80;45.30
4566;DHT22;2295;51.050;14.608;2023-05-10T11:09:16;23.80;43.70
4566;DHT22;2295;51.050;14.608;2023-05-10T11:11:52;23.20;47.70
4566;DHT22;2295;51.050;14.608;2023-05-10T11:14:22;23.50;44.80
4566;DHT22;2295;51.050;14.608;2023-05-10T11:16:51;23.70;47.00
4566;DHT22;2295;51.050;14.608;2023-05-10T11:19:19;23.60;46.20
4566;DHT22;2295;51.050;14.608;2023-05-10T11:21:49;24.70;44.90
4566;DHT22;2295;51.050;14.608;2023-05-10T11:24:20;24.70;45.30
4566;DHT22;2295;51.050;14.608;2023-05-10T11:26:50;24.90;43.20
4566;DHT22;2295;51.050;14.608;2023-05-10T11:29:18;25.10;45.50
4566;DHT22;2295;51.050;14.608;2023-05-10T11:31:47;25.70;42.50
4566;DHT22;2295;51.050;14.608;2023-05-10T11:34:26;24.80;41.90
4566;DHT22;2295;51.050;14.608;2023-05-10T11:36:55;23.60;45.20
4566;DHT22;2295;51.050;14.608;2023-05-10T11:39:28;23.90;44.30
4566;DHT22;2295;51.050;14.608;2023-05-10T11:41:56;23.30;43.50
4566;DHT22;2295;51.050;14.608;2023-05-10T11:44:29;23.50;45.40
4566;DHT22;2295;51.050;14.608;2023-05-10T11:46:58;24.20;47.40
4566;DHT22;2295;51.050;14.608;2023-05-10T11:49:28;24.30;43.90
4566;DHT22;2295;51.050;14.608;2023-05-10T11:52:04;23.30;44.70
4566;DHT22;2295;51.050;14.608;2023-05-10T11:54:34;23.40;47.50
4566;DHT22;2295;51.050;14.608;2023-05-10T11:57:03;24.50;45.70
4566;DHT22;2295;51.050;14.608;2023-05-10T11:59:31;24.30;43.80
4566;DHT22;2295;51.050;14.608;2023-05-10T12:02:00;23.10;45.90
4566;DHT22;2295;51.050;14.608;2023-05-10T12:04:28;23.80;48.60
4566;DHT22;2295;51.050;14.608;2023-05-10T12:06:57;24.00;44.20
4566;DHT22;2295;51.050;14.608;2023-05-10T12:09:25;23.30;44.30
4566;DHT22;2295;51.050;14.608;2023-05-10T12:12:10;23.40;45.10
4566;DHT22;2295;51.050;14.608;2023-05-10T12:14:43;23.30;44.70
4566;DHT22;2295;51.050;14.608;2023-05-10T12:17:12;23.60;45.70
4566;DHT22;2295;51.050;14.608;2023-05-10T12:19:41;24.30;45.90
4566;DHT22;2295;51.050;14.608;2023-05-10T12:22:10;25.30;43.90
4566;DHT22;2295;51.050;14.608;2023-05-10T12:24:38;24.80;45.60
4566;DHT22;2295;51.050;14.608;2023-05-10T12:27:09;25.30;43.20
4566;DHT22;2295;51.050;14.608;2023-05-10T12:29:41;25.40;43.80
4566;DHT22;2295;51.050;14.608;2023-05-10T12:32:11;25.80;43.00
4566;DHT22;2295;51.050;14.608;2023-05-10T12:34:39;24.50;41.70
4566;DHT22;2295;51.050;14.608;2023-05-10T12:37:08;22.50;45.20
4566;DHT22;2295;51.050;14.608;2023-05-10T12:39:40;21.90;47.20
4566;DHT22;2295;51.050;14.608;2023-05-10T12:42:10;21.70;47.50
4566;DHT22;2295;51.050;14.608;2023-05-10T12:44:39;21.70;48.20
4566;DHT22;2295;51.050;14.608;2023-05-10T12:47:07;22.40;50.20
4566;DHT22;2295;51.050;14.608;2023-05-10T12:49:35;23.20;47.50
4566;DHT22;2295;51.050;14.608;2023-05-10T12:52:04;23.80;45.80
4566;DHT22;2295;51.050;14.608;2023-05-10T12:54:32;24.50;44.40
4566;DHT22;2295;51.050;14.608;2023-05-10T12:57:00;24.20;43.50
4566;DHT22;2295;51.050;14.608;2023-05-10T12:59:30;24.90;41.90
4566;DHT22;2295;51.050;14.608;2023-05-10T13:01:58;24.20;42.80
4566;DHT22;2295;51.050;14.608;2023-05-10T13:04:27;24.10;42.30
4566;DHT22;2295;51.050;14.608;2023-05-10T13:06:55;23.70;43.80
4566;DHT22;2295;51.050;14.608;2023-05-10T13:09:25;23.00;44.20
4566;DHT22;2295;51.050;14.608;2023-05-10T13:11:56;22.30;45.30
4566;DHT22;2295;51.050;14.608;2023-05-10T13:14:24;22.60;47.50
4566;DHT22;2295;51.050;14.608;2023-05-10T13:16:54;22.10;46.80
4566;DHT22;2295;51.050;14.608;2023-05-10T13:19:23;21.30;47.40
4566;DHT22;2295;51.050;14.608;2023-05-10T13:21:51;21.20;48.10
4566;DHT22;2295;51.050;14.608;2023-05-10T13:24:22;21.60;50.90
4566;DHT22;2295;51.050;14.608;2023-05-10T13:26:50;21.90;47.80
4566;DHT22;2295;51.050;14.608;2023-05-10T13:29:18;20.90;48.70
4566;DHT22;2295;51.050;14.608;2023-05-10T13:31:50;20.60;50.60
4566;DHT22;2295;51.050;14.608;2023-05-10T13:34:20;20.40;50.90
4566;DHT22;2295;51.050;14.608;2023-05-10T13:36:49;20.70;51.70
4566;DHT22;2295;51.050;14.608;2023-05-10T13:39:20;20.60;50.70
4566;DHT22;2295;51.050;14.608;2023-05-10T13:41:48;20.40;51.90
4566;DHT22;2295;51.050;14.608;2023-05-10T13:44:20;20.00;51.30
4566;DHT22;2295;51.050;14.608;2023-05-10T13:46:50;20.60;51.60
4566;DHT22;2295;51.050;14.608;2023-05-10T13:49:20;21.10;50.70
4566;DHT22;2295;51.050;14.608;2023-05-10T13:51:48;20.60;50.30
4566;DHT22;2295;51.050;14.608;2023-05-10T13:54:17;20.50;51.40
4566;DHT22;2295;51.050;14.608;2023-05-10T13:56:46;20.50;51.20
4566;DHT22;2295;51.050;14.608;2023-05-10T13:59:18;21.10;49.70
4566;DHT22;2295;51.050;14.608;2023-05-10T14:01:46;21.60;52.40
4566;DHT22;2295;51.050;14.608;2023-05-10T14:04:14;21.90;48.80
4566;DHT22;2295;51.050;14.608;2023-05-10T14:06:44;22.10;51.70
4566;DHT22;2295;51.050;14.608;2023-05-10T14:09:12;21.80;49.30
4566;DHT22;2295;51.050;14.608;2023-05-10T14:11:41;21.10;49.40
4566;DHT22;2295;51.050;14.608;2023-05-10T14:14:10;20.50;52.60
4566;DHT22;2295;51.050;14.608;2023-05-10T14:16:40;20.50;51.40
4566;DHT22;2295;51.050;14.608;2023-05-10T14:19:12;20.30;53.80
4566;DHT22;2295;51.050;14.608;2023-05-10T14:21:40;20.50;53.70
4566;DHT22;2295;51.050;14.608;2023-05-10T14:24:11;20.70;51.70
4566;DHT22;2295;51.050;14.608;2023-05-10T14:26:39;20.80;52.00
4566;DHT22;2295;51.050;14.608;2023-05-10T14:29:07;21.20;50.60
4566;DHT22;2295;51.050;14.608;2023-05-10T14:31:39;21.40;51.90
4566;DHT22;2295;51.050;14.608;2023-05-10T14:34:08;20.70;50.30
4566;DHT22;2295;51.050;14.608;2023-05-10T14:36:36;20.40;51.00
4566;DHT22;2295;51.050;14.608;2023-05-10T14:39:06;20.50;52.90
4566;DHT22;2295;51.050;14.608;2023-05-10T14:41:36;21.60;51.70
4566;DHT22;2295;51.050;14.608;2023-05-10T14:44:05;22.20;50.90
4566;DHT22;2295;51.050;14.608;2023-05-10T14:46:34;22.20;48.00
4566;DHT22;2295;51.050;14.608;2023-05-10T14:49:02;22.00;50.30
4566;DHT22;2295;51.050;14.608;2023-05-10T14:51:30;22.10;49.10
4566;DHT22;2295;51.050;14.608;2023-05-10T14:53:59;22.00;48.50
4566;DHT22;2295;51.050;14.608;2023-05-10T14:56:28;21.60;50.10
4566;DHT22;2295;51.050;14.608;2023-05-10T14:58:57;22.00;51.20
4566;DHT22;2295;51.050;14.608;2023-05-10T15:01:28;21.60;50.50
4566;DHT22;2295;51.050;14.608;2023-05-10T15:03:58;21.70;51.50
4566;DHT22;2295;51.050;14.608;2023-05-10T15:06:31;21.50;49.60
4566;DHT22;2295;51.050;14.608;2023-05-10T15:09:03;21.80;50.10
4566;DHT22;2295;51.050;14.608;2023-05-10T15:11:32;21.70;49.90
4566;DHT22;2295;51.050;14.608;2023-05-10T15:14:01;21.30;49.80
4566;DHT22;2295;51.050;14.608;2023-05-10T15:16:29;21.60;52.40
4566;DHT22;2295;51.050;14.608;2023-05-10T15:19:04;21.20;50.40
4566;DHT22;2295;51.050;14.608;2023-05-10T15:21:33;21.00;52.80
4566;DHT22;2295;51.050;14.608;2023-05-10T15:24:05;21.30;52.20
4566;DHT22;2295;51.050;14.608;2023-05-10T15:26:34;21.10;51.20
4566;DHT22;2295;51.050;14.608;2023-05-10T15:29:03;20.50;53.70
4566;DHT22;2295;51.050;14.608;2023-05-10T15:31:32;20.50;52.10
4566;DHT22;2295;51.050;14.608;2023-05-10T15:34:04;20.90;51.80
4566;DHT22;2295;51.050;14.608;2023-05-10T15:36:32;20.30;51.80
4566;DHT22;2295;51.050;14.608;2023-05-10T15:39:01;20.30;53.30
4566;DHT22;2295;51.050;14.608;2023-05-10T15:41:29;20.70;52.60
4566;DHT22;2295;51.050;14.608;2023-05-10T15:43:58;20.80;51.90
4566;DHT22;2295;51.050;14.608;2023-05-10T15:46:28;21.00;52.60
4566;DHT22;2295;51.050;14.608;2023-05-10T15:48:57;21.10;50.70
4566;DHT22;2295;51.050;14.608;2023-05-10T15:51:25;21.10;50.90
4566;DHT22;2295;51.050;14.608;2023-05-10T15:53:53;20.50;51.30
4566;DHT22;2295;51.050;14.608;2023-05-10T15:56:33;20.70;52.30
4566;DHT22;2295;51.050;14.608;2023-05-10T15:59:01;20.80;52.00
4566;DHT22;2295;51.050;14.608;2023-05-10T16:01:31;20.50;52.60
4566;DHT22;2295;51.050;14.608;2023-05-10T16:03:59;20.60;52.00
4566;DHT22;2295;51.050;14.608;2023-05-10T16:06:28;20.70;52.40
4566;DHT22;2295;51.050;14.608;2023-05-10T16:08:57;20.50;51.40
4566;DHT22;2295;51.050;14.608;2023-05-10T16:11:25;20.60;52.10